This is the latest recevied weather packets stored in our database for station/object EFOU. If no packets are shown the sender has not sent any weather packets the latest 10 day(s).
| Time | Temp. | Humidity | Pressure | Rain* | Wind** | Luminosity | Snow |
|---|---|---|---|---|---|---|---|
| 1777741621 | 10.56° C | 53% | 1002.7 hPa | - | - | - | - |
| 1777740421 | 11.67° C | 48% | 1002.6 hPa | - | - | - | - |
| 1777739220 | 12.78° C | 46% | 1002.5 hPa | - | - | - | - |
| 1777738020 | 12.22° C | 46% | 1002.6 hPa | - | - | - | - |
| 1777736820 | 12.78° C | 46% | 1002.9 hPa | - | - | - | - |
| 1777735620 | 11.11° C | 51% | 1002.9 hPa | - | - | - | - |
| 1777734420 | 10.56° C | 53% | 1002.8 hPa | - | - | - | - |
| 1777733220 | 10.56° C | 56% | 1002.9 hPa | - | - | - | - |
| 1777732020 | 11.11° C | 51% | 1002.9 hPa | - | - | - | - |
| 1777729620 | 13.89° C | 41% | 1002.9 hPa | - | - | - | - |
| 1777728420 | 13.89° C | 42% | 1002.9 hPa | - | - | - | - |
| 1777727220 | 15.56° C | 39% | 1002.9 hPa | - | - | - | - |
| 1777726020 | 14.44° C | 40% | 1002.8 hPa | - | - | - | - |
| 1777724820 | 14.44° C | 43% | 1002.8 hPa | - | - | - | - |
| 1777723620 | 15° C | 41% | 1002.8 hPa | - | - | - | - |
| 1777722420 | 14.44° C | 38% | 1002.7 hPa | - | - | - | - |
| 1777721220 | 15° C | 40% | 1002.8 hPa | - | - | - | - |
| 1777720020 | 15.56° C | 38% | 1002.7 hPa | - | - | - | - |
| 1777718820 | 16.67° C | 33% | 1002.5 hPa | - | - | - | - |
| 1777717620 | 16.11° C | 36% | 1002.5 hPa | - | - | - | - |
| 1777716419 | 15.56° C | 41% | 1002.7 hPa | - | - | - | - |
| 1777715219 | 15.56° C | 40% | 1002.8 hPa | - | - | - | - |
| 1777714019 | 16.67° C | 35% | 1002.9 hPa | - | - | - | - |
| 1777712819 | 16.11° C | 38% | 1003.2 hPa | - | - | - | - |
| 1777711619 | 15° C | 41% | 1003.4 hPa | - | - | - | - |
* Rain since midnight (hover to see other rain measurements)
** Current wind speed in m/s (hover to see current wind gust speed)